createdAt,value
2018-05-31T00:02:14.389Z,21.20
2018-05-31T00:04:44.978Z,21.20
2018-05-31T00:07:15.423Z,21.20
2018-05-31T00:09:45.971Z,21.20
2018-05-31T00:12:16.513Z,21.20
2018-05-31T00:14:47.086Z,21.10
2018-05-31T00:17:17.518Z,21.10
2018-05-31T00:19:48.033Z,21.10
2018-05-31T00:22:18.542Z,21.10
2018-05-31T00:24:49.075Z,21.10
2018-05-31T00:27:19.518Z,21.10
2018-05-31T00:29:49.985Z,21.10
2018-05-31T00:32:20.403Z,21.00
2018-05-31T00:34:50.946Z,21.00
2018-05-31T00:37:21.391Z,20.90
2018-05-31T00:39:51.997Z,20.80
2018-05-31T00:42:22.452Z,20.80
2018-05-31T00:44:53.739Z,20.80
2018-05-31T00:47:24.177Z,20.80
2018-05-31T00:49:55.574Z,20.70
2018-05-31T00:52:25.992Z,20.70
2018-05-31T00:54:57.319Z,20.70
2018-05-31T00:57:27.815Z,20.70
2018-05-31T00:59:58.414Z,20.70
2018-05-31T01:02:28.866Z,20.70
2018-05-31T01:04:59.392Z,20.70
2018-05-31T01:07:29.944Z,20.70
2018-05-31T01:10:00.563Z,20.70
2018-05-31T01:12:31.102Z,20.70
2018-05-31T01:15:01.829Z,20.70
2018-05-31T01:17:32.362Z,20.60
2018-05-31T01:20:02.996Z,20.70
2018-05-31T01:22:34.382Z,20.60
2018-05-31T01:25:05.096Z,20.60
2018-05-31T01:27:35.610Z,20.60
2018-05-31T01:30:06.406Z,20.50
2018-05-31T01:32:36.984Z,20.50
2018-05-31T01:35:07.643Z,20.50
2018-05-31T01:37:38.943Z,20.40
2018-05-31T01:40:09.587Z,20.40
2018-05-31T01:42:40.221Z,20.40
2018-05-31T01:45:10.842Z,20.30
2018-05-31T01:47:41.292Z,20.30
2018-05-31T01:50:12.020Z,20.20
2018-05-31T01:52:42.615Z,20.20
2018-05-31T01:55:13.196Z,20.20
2018-05-31T01:57:44.503Z,20.10
2018-05-31T02:00:15.219Z,20.10
2018-05-31T02:02:45.739Z,20.10
2018-05-31T02:05:16.404Z,20.10
2018-05-31T02:07:46.933Z,20.10
2018-05-31T02:10:17.562Z,20.00
2018-05-31T02:12:48.191Z,20.00
2018-05-31T02:15:18.805Z,20.00
2018-05-31T02:17:49.420Z,20.00
2018-05-31T02:20:20.098Z,19.90
2018-05-31T02:22:50.739Z,19.90
2018-05-31T02:25:21.335Z,19.80
2018-05-31T02:27:51.870Z,19.70
2018-05-31T02:30:22.727Z,19.80
2018-05-31T02:32:53.361Z,19.80
2018-05-31T02:35:23.985Z,19.70
2018-05-31T02:37:54.521Z,19.70
2018-05-31T02:40:25.942Z,19.70
2018-05-31T02:42:57.285Z,19.60
2018-05-31T02:45:27.915Z,19.60
2018-05-31T02:47:58.424Z,19.60
2018-05-31T02:50:29.028Z,19.60
2018-05-31T02:52:59.600Z,19.60
2018-05-31T02:55:30.208Z,19.50
2018-05-31T02:58:00.700Z,19.50
2018-05-31T03:00:31.266Z,19.50
2018-05-31T03:03:02.460Z,19.40
2018-05-31T03:05:32.973Z,19.40
2018-05-31T03:08:03.463Z,19.40
2018-05-31T03:10:34.017Z,19.30
2018-05-31T03:13:04.524Z,19.30
2018-05-31T03:15:35.160Z,19.20
2018-05-31T03:18:05.566Z,19.20
2018-05-31T03:20:36.081Z,19.30
2018-05-31T03:23:06.538Z,19.30
2018-05-31T03:25:37.846Z,19.30
2018-05-31T03:28:09.076Z,19.20
2018-05-31T03:30:39.607Z,19.20
2018-05-31T03:33:10.034Z,19.20
2018-05-31T03:35:40.594Z,19.30
2018-05-31T03:38:11.786Z,19.30
2018-05-31T03:40:42.314Z,19.20
2018-05-31T03:43:12.829Z,19.30
2018-05-31T03:45:43.356Z,19.30
2018-05-31T03:48:13.861Z,19.30
2018-05-31T03:50:45.180Z,19.20
2018-05-31T03:53:15.636Z,19.20
2018-05-31T03:55:46.960Z,19.20
2018-05-31T03:58:17.477Z,19.30
2018-05-31T04:00:48.075Z,19.30
2018-05-31T04:03:18.532Z,19.30
2018-05-31T04:05:49.060Z,19.30
2018-05-31T04:08:19.547Z,19.30
2018-05-31T04:10:50.242Z,19.30
2018-05-31T04:13:20.650Z,19.40
2018-05-31T04:15:51.999Z,19.50
2018-05-31T04:18:22.487Z,19.40
2018-05-31T04:20:54.054Z,19.50
2018-05-31T04:23:24.550Z,19.60
2018-05-31T04:25:55.195Z,19.50
2018-05-31T04:28:25.673Z,19.60
2018-05-31T04:30:55.841Z,19.60
2018-05-31T04:33:25.865Z,19.60
2018-05-31T04:35:56.667Z,19.70
2018-05-31T04:38:26.628Z,19.60
2018-05-31T04:40:57.470Z,19.80
2018-05-31T04:43:27.430Z,19.80
2018-05-31T04:45:57.437Z,19.80
2018-05-31T04:48:27.478Z,19.80
2018-05-31T04:50:57.554Z,19.80
2018-05-31T04:53:27.638Z,19.90
2018-05-31T04:55:57.602Z,19.90
2018-05-31T04:58:27.640Z,20.00
2018-05-31T05:00:57.677Z,20.00
2018-05-31T05:03:27.692Z,20.00
2018-05-31T05:05:57.677Z,20.00
2018-05-31T05:08:27.741Z,20.10
2018-05-31T05:10:57.718Z,20.10
2018-05-31T05:13:27.725Z,20.20
2018-05-31T05:15:57.717Z,20.20
2018-05-31T05:18:28.528Z,20.30
2018-05-31T05:20:58.526Z,20.30
2018-05-31T05:23:28.543Z,20.30
2018-05-31T05:25:58.621Z,20.30
2018-05-31T05:28:29.439Z,20.50
2018-05-31T05:31:00.180Z,20.50
2018-05-31T05:33:30.959Z,20.60
2018-05-31T05:36:01.723Z,20.70
2018-05-31T05:38:32.955Z,20.70
2018-05-31T05:41:03.430Z,20.70
2018-05-31T05:43:33.996Z,20.80
2018-05-31T05:46:04.126Z,20.80
2018-05-31T05:48:34.721Z,20.80
2018-05-31T05:51:05.148Z,20.90
2018-05-31T05:53:35.677Z,20.90
2018-05-31T05:56:06.501Z,21.10
2018-05-31T05:58:36.968Z,21.10
2018-05-31T06:01:07.411Z,21.10
2018-05-31T06:03:37.883Z,21.30
2018-05-31T06:06:09.218Z,21.40
2018-05-31T06:08:40.538Z,21.50
2018-05-31T06:11:11.010Z,21.50
2018-05-31T06:13:41.117Z,21.60
2018-05-31T06:16:11.181Z,21.60
2018-05-31T06:18:41.214Z,21.70
2018-05-31T06:21:11.219Z,21.70
2018-05-31T06:23:41.262Z,21.80
2018-05-31T06:26:12.064Z,21.90
2018-05-31T06:28:42.246Z,21.90
2018-05-31T06:31:12.247Z,22.00
2018-05-31T06:33:42.269Z,22.00
2018-05-31T06:36:13.016Z,22.20
2018-05-31T06:38:43.809Z,22.30
2018-05-31T06:41:13.845Z,22.30
2018-05-31T06:43:43.856Z,22.40
2018-05-31T06:46:15.421Z,22.40
2018-05-31T06:48:45.609Z,22.50
2018-05-31T06:51:15.621Z,22.60
2018-05-31T06:53:45.674Z,22.70
2018-05-31T06:56:27.139Z,22.80
2018-05-31T06:58:59.690Z,22.80
2018-05-31T07:01:29.652Z,22.90
2018-05-31T07:03:59.675Z,23.00
2018-05-31T07:06:30.408Z,23.20
2018-05-31T07:09:01.178Z,23.30
2018-05-31T07:11:31.179Z,23.30
2018-05-31T07:14:01.206Z,23.30
2018-05-31T07:16:31.223Z,23.50
2018-05-31T07:19:01.503Z,23.50
2018-05-31T07:21:31.479Z,23.60
2018-05-31T07:24:01.482Z,23.70
2018-05-31T07:26:31.473Z,23.80
2018-05-31T07:29:02.409Z,23.90
2018-05-31T07:31:32.587Z,23.90
2018-05-31T07:34:03.380Z,24.00
2018-05-31T07:36:35.906Z,24.10
2018-05-31T07:39:08.197Z,24.20
2018-05-31T07:41:38.721Z,24.30
2018-05-31T07:44:08.724Z,24.40
2018-05-31T07:46:38.693Z,24.50
2018-05-31T07:49:08.706Z,24.60
2018-05-31T07:51:38.671Z,24.70
2018-05-31T07:54:08.680Z,24.70
2018-05-31T07:56:38.770Z,24.80
2018-05-31T07:59:08.794Z,25.00
2018-05-31T08:01:38.781Z,25.00
2018-05-31T08:04:08.821Z,25.10
2018-05-31T08:06:38.814Z,25.20
2018-05-31T08:09:08.814Z,25.30
2018-05-31T08:11:39.579Z,25.50
2018-05-31T08:14:09.578Z,25.40
2018-05-31T08:16:39.562Z,25.60
2018-05-31T08:19:09.609Z,25.60
2018-05-31T08:21:39.601Z,25.80
2018-05-31T08:24:09.660Z,25.90
2018-05-31T08:26:39.620Z,26.00
2018-05-31T08:29:09.617Z,26.10
2018-05-31T08:31:39.715Z,26.20
2018-05-31T08:34:09.733Z,26.30
2018-05-31T08:36:39.719Z,26.30
2018-05-31T08:39:10.515Z,26.50
2018-05-31T08:41:40.482Z,26.50
2018-05-31T08:44:10.566Z,26.60
2018-05-31T08:46:40.563Z,26.60
2018-05-31T08:49:10.575Z,26.70
2018-05-31T08:51:40.557Z,26.70
2018-05-31T08:54:10.606Z,26.80
2018-05-31T08:56:40.601Z,26.90
2018-05-31T08:59:10.620Z,27.00
2018-05-31T09:01:40.594Z,27.10
2018-05-31T09:04:10.597Z,27.20
2018-05-31T09:06:40.577Z,27.30
2018-05-31T09:09:10.616Z,27.30
2018-05-31T09:11:40.674Z,27.40
2018-05-31T09:14:11.443Z,27.60
2018-05-31T09:16:41.426Z,27.50
2018-05-31T09:19:12.230Z,27.70
2018-05-31T09:21:42.249Z,27.70
2018-05-31T09:24:12.215Z,27.70
2018-05-31T09:26:42.231Z,27.80
2018-05-31T09:29:12.199Z,27.80
2018-05-31T09:31:42.199Z,28.00
2018-05-31T09:34:12.162Z,28.10
2018-05-31T09:36:42.921Z,28.30
2018-05-31T09:39:12.966Z,28.20
2018-05-31T09:41:42.975Z,28.30
2018-05-31T09:44:12.969Z,28.40
2018-05-31T09:46:42.995Z,28.50
2018-05-31T09:49:12.979Z,28.60
2018-05-31T09:51:42.997Z,28.70
2018-05-31T09:54:12.965Z,28.80
2018-05-31T09:56:42.978Z,28.90
2018-05-31T09:59:12.961Z,29.00
2018-05-31T10:01:42.967Z,29.10
2018-05-31T10:04:12.945Z,29.20
2018-05-31T10:06:42.975Z,29.30
2018-05-31T10:09:13.738Z,29.50
2018-05-31T10:11:43.865Z,29.50
2018-05-31T10:14:13.867Z,29.60
2018-05-31T10:16:43.866Z,29.60
2018-05-31T10:19:14.649Z,29.70
2018-05-31T10:21:44.732Z,29.70
2018-05-31T10:24:15.487Z,29.90
2018-05-31T10:26:45.509Z,29.90
2018-05-31T10:29:15.514Z,30.10
2018-05-31T10:31:45.518Z,30.10
2018-05-31T10:34:16.249Z,30.20
2018-05-31T10:36:47.014Z,30.40
2018-05-31T10:39:17.026Z,30.30
2018-05-31T10:41:47.011Z,30.40
2018-05-31T10:44:17.735Z,30.60
2018-05-31T10:46:48.532Z,30.70
2018-05-31T10:49:18.500Z,30.70
2018-05-31T10:51:48.548Z,30.80
2018-05-31T10:54:18.524Z,30.80
2018-05-31T10:56:48.588Z,31.00
2018-05-31T10:59:18.555Z,31.00
2018-05-31T11:01:48.632Z,31.00
2018-05-31T11:04:18.682Z,31.10
2018-05-31T11:06:49.460Z,31.20
2018-05-31T11:09:19.461Z,31.20
2018-05-31T11:11:49.485Z,31.30
2018-05-31T11:14:20.236Z,31.50
2018-05-31T11:16:50.222Z,31.50
2018-05-31T11:19:20.195Z,31.60
2018-05-31T11:21:50.190Z,31.70
2018-05-31T11:24:20.153Z,31.80
2018-05-31T11:26:50.938Z,32.10
2018-05-31T11:29:20.929Z,32.00
2018-05-31T11:31:50.932Z,32.20
2018-05-31T11:34:20.915Z,32.40
2018-05-31T11:36:50.925Z,32.50
2018-05-31T11:39:20.925Z,32.60
2018-05-31T11:41:50.930Z,32.80
2018-05-31T11:44:20.921Z,32.70
2018-05-31T11:46:50.917Z,32.90
2018-05-31T11:49:21.005Z,33.00
2018-05-31T11:51:50.996Z,33.20
2018-05-31T11:54:20.972Z,33.20
2018-05-31T11:56:51.034Z,33.40
2018-05-31T11:59:21.006Z,33.40
2018-05-31T12:01:51.758Z,33.70
2018-05-31T12:04:21.762Z,33.70
2018-05-31T12:06:52.535Z,33.80
2018-05-31T12:09:22.502Z,33.80
2018-05-31T12:11:53.300Z,33.90
2018-05-31T12:14:23.292Z,33.90
2018-05-31T12:16:53.317Z,33.90
2018-05-31T12:19:23.284Z,34.10
2018-05-31T12:21:54.134Z,34.20
2018-05-31T12:24:24.878Z,34.40
2018-05-31T12:26:54.895Z,34.30
2018-05-31T12:29:24.861Z,34.40
2018-05-31T12:31:55.645Z,34.70
2018-05-31T12:34:25.609Z,34.70
2018-05-31T12:36:55.610Z,34.70
2018-05-31T12:39:25.560Z,34.70
2018-05-31T12:41:56.367Z,34.90
2018-05-31T12:44:26.340Z,34.90
2018-05-31T12:46:56.382Z,35.00
2018-05-31T12:49:26.335Z,35.10
2018-05-31T12:51:56.337Z,35.20
2018-05-31T12:54:26.324Z,35.30
2018-05-31T12:56:56.341Z,35.40
2018-05-31T12:59:26.365Z,35.50
2018-05-31T13:01:56.365Z,35.70
2018-05-31T13:04:26.328Z,35.80
2018-05-31T13:06:56.317Z,35.90
2018-05-31T13:09:26.276Z,35.90
2018-05-31T13:12:00.308Z,36.00
2018-05-31T13:14:30.301Z,36.00
2018-05-31T13:17:00.322Z,36.10
2018-05-31T13:19:31.036Z,36.20
2018-05-31T13:22:01.833Z,36.20
2018-05-31T13:24:31.798Z,36.20
2018-05-31T13:27:01.792Z,36.40
2018-05-31T13:29:32.549Z,36.60
2018-05-31T13:32:03.336Z,36.70
2018-05-31T13:34:33.306Z,36.70
2018-05-31T13:37:03.325Z,36.70
2018-05-31T13:39:33.347Z,36.70
2018-05-31T13:42:04.121Z,36.70
2018-05-31T13:44:34.075Z,36.70
2018-05-31T13:47:04.062Z,36.80
2018-05-31T13:49:34.017Z,36.90
2018-05-31T13:52:04.044Z,37.00
2018-05-31T13:54:34.780Z,37.20
2018-05-31T13:57:05.534Z,37.20
2018-05-31T13:59:35.529Z,37.20
2018-05-31T14:02:06.295Z,37.30
2018-05-31T14:04:37.062Z,37.40
2018-05-31T14:07:07.121Z,37.40
2018-05-31T14:09:37.887Z,37.50
2018-05-31T14:12:07.879Z,37.50
2018-05-31T14:14:37.849Z,37.60
2018-05-31T14:17:07.844Z,37.60
2018-05-31T14:19:37.805Z,37.50
2018-05-31T14:22:07.792Z,37.40
2018-05-31T14:24:37.756Z,37.60
2018-05-31T14:27:07.840Z,37.50
2018-05-31T14:29:37.821Z,37.60
2018-05-31T14:32:07.829Z,37.40
2018-05-31T14:34:38.676Z,36.60
2018-05-31T14:37:08.665Z,36.60
2018-05-31T14:39:38.628Z,36.10
2018-05-31T14:42:08.633Z,35.80
2018-05-31T14:44:38.597Z,35.70
2018-05-31T14:47:08.622Z,36.00
2018-05-31T14:49:38.634Z,36.30
2018-05-31T14:52:09.405Z,36.90
2018-05-31T14:54:39.360Z,36.90
2018-05-31T14:57:09.361Z,37.10
2018-05-31T14:59:39.366Z,37.20
2018-05-31T15:02:09.351Z,37.00
2018-05-31T15:04:39.395Z,36.90
2018-05-31T15:07:09.544Z,36.90
2018-05-31T15:09:39.570Z,36.90
2018-05-31T15:12:09.544Z,36.80
2018-05-31T15:14:39.538Z,36.40
2018-05-31T15:17:09.546Z,36.30
2018-05-31T15:19:39.542Z,36.10
2018-05-31T15:22:10.279Z,35.70
2018-05-31T15:24:40.301Z,35.60
2018-05-31T15:27:11.073Z,35.60
2018-05-31T15:29:41.065Z,35.60
2018-05-31T15:32:11.021Z,35.60
2018-05-31T15:34:41.034Z,35.80
2018-05-31T15:37:10.988Z,36.00
2018-05-31T15:39:41.745Z,36.30
2018-05-31T15:42:11.695Z,36.20
2018-05-31T15:44:41.696Z,36.30
2018-05-31T15:47:13.131Z,36.30
2018-05-31T15:49:43.179Z,36.20
2018-05-31T15:52:13.181Z,36.10
2018-05-31T15:54:43.168Z,36.00
2018-05-31T15:57:13.949Z,35.90
2018-05-31T15:59:43.942Z,35.90
2018-05-31T16:02:13.949Z,35.90
2018-05-31T16:04:43.965Z,36.00
2018-05-31T16:07:13.932Z,36.00
2018-05-31T16:09:43.933Z,36.00
2018-05-31T16:12:13.936Z,35.90
2018-05-31T16:14:43.923Z,35.90
2018-05-31T16:17:13.879Z,35.80
2018-05-31T16:19:43.859Z,35.70
2018-05-31T16:22:13.811Z,35.60
2018-05-31T16:24:43.820Z,35.50
2018-05-31T16:27:13.790Z,35.30
2018-05-31T16:29:43.796Z,35.40
2018-05-31T16:32:13.870Z,35.40
2018-05-31T16:34:43.873Z,35.40
2018-05-31T16:37:13.845Z,35.40
2018-05-31T16:39:44.611Z,35.30
2018-05-31T16:42:14.620Z,35.30
2018-05-31T16:44:44.734Z,35.20
2018-05-31T16:47:14.704Z,35.20
2018-05-31T16:49:44.725Z,35.20
2018-05-31T16:52:14.691Z,35.10
2018-05-31T16:54:46.098Z,35.10
2018-05-31T16:57:16.701Z,35.00
2018-05-31T16:59:46.871Z,34.90
2018-05-31T17:02:19.095Z,34.80
2018-05-31T17:04:49.088Z,34.80
2018-05-31T17:07:19.034Z,34.70
2018-05-31T17:09:49.862Z,34.40
2018-05-31T17:12:19.826Z,34.40
2018-05-31T17:14:50.683Z,34.10
2018-05-31T17:17:20.753Z,34.20
2018-05-31T17:19:51.007Z,34.00
2018-05-31T17:22:21.249Z,33.80
2018-05-31T17:24:51.839Z,33.70
2018-05-31T17:27:22.600Z,33.40
2018-05-31T17:29:52.950Z,33.40
2018-05-31T17:32:25.786Z,33.20
2018-05-31T17:34:59.067Z,33.10
2018-05-31T17:37:29.210Z,32.90
2018-05-31T17:39:59.272Z,32.70
2018-05-31T17:42:29.297Z,32.60
2018-05-31T17:44:59.295Z,32.40
2018-05-31T17:47:29.250Z,32.20
2018-05-31T17:49:59.266Z,32.10
2018-05-31T17:52:30.750Z,31.80
2018-05-31T17:55:00.764Z,31.80
2018-05-31T17:57:30.753Z,31.70
2018-05-31T18:00:01.572Z,31.50
2018-05-31T18:02:31.526Z,31.50
2018-05-31T18:05:02.291Z,31.30
2018-05-31T18:07:32.338Z,31.30
2018-05-31T18:10:02.332Z,31.10
2018-05-31T18:12:32.377Z,31.00
2018-05-31T18:15:02.405Z,30.90
2018-05-31T18:17:32.449Z,30.70
2018-05-31T18:20:02.458Z,30.60
2018-05-31T18:22:32.447Z,30.40
2018-05-31T18:25:03.212Z,30.10
2018-05-31T18:27:34.018Z,30.00
2018-05-31T18:30:03.994Z,29.90
2018-05-31T18:32:33.963Z,29.80
2018-05-31T18:35:04.023Z,29.70
2018-05-31T18:37:34.751Z,29.40
2018-05-31T18:40:04.821Z,29.50
2018-05-31T18:42:35.611Z,29.20
2018-05-31T18:45:05.682Z,29.20
2018-05-31T18:47:35.648Z,29.10
2018-05-31T18:50:05.697Z,28.90
2018-05-31T18:52:35.634Z,28.90
2018-05-31T18:55:06.402Z,28.60
2018-05-31T18:57:36.417Z,28.60
2018-05-31T19:00:06.467Z,28.40
2018-05-31T19:02:36.420Z,28.20
2018-05-31T19:05:07.193Z,28.20
2018-05-31T19:07:37.278Z,28.20
2018-05-31T19:10:08.067Z,28.00
2018-05-31T19:12:43.258Z,27.90
2018-05-31T19:15:21.631Z,27.80
2018-05-31T19:17:43.298Z,27.70
2018-05-31T19:20:13.458Z,27.60
2018-05-31T19:22:46.280Z,27.50
2018-05-31T19:25:21.065Z,27.30
2018-05-31T19:27:51.014Z,27.30
2018-05-31T19:30:26.454Z,27.20
2018-05-31T19:32:56.412Z,27.20
2018-05-31T19:35:31.699Z,27.00
2018-05-31T19:38:01.648Z,27.00
2018-05-31T19:40:31.657Z,26.90
2018-05-31T19:43:07.650Z,26.70
2018-05-31T19:45:37.816Z,26.60
2018-05-31T19:48:07.818Z,26.60
2018-05-31T19:50:37.807Z,26.50
2018-05-31T19:53:13.128Z,26.40
2018-05-31T19:55:43.195Z,26.30
2018-05-31T19:58:19.238Z,26.20
2018-05-31T20:00:54.386Z,26.10
2018-05-31T20:03:30.377Z,26.10
2018-05-31T20:06:00.387Z,26.10
2018-05-31T20:08:31.174Z,26.00
2018-05-31T20:11:01.187Z,26.00
2018-05-31T20:13:31.149Z,25.90
2018-05-31T20:16:01.206Z,25.90
2018-05-31T20:18:31.211Z,25.90
2018-05-31T20:21:02.356Z,25.70
2018-05-31T20:23:32.403Z,25.80
2018-05-31T20:26:02.395Z,25.70
2018-05-31T20:28:32.373Z,25.60
2018-05-31T20:31:03.631Z,25.60
2018-05-31T20:33:39.708Z,25.60
2018-05-31T20:36:17.169Z,25.50
2018-05-31T20:38:55.446Z,25.40
2018-05-31T20:41:40.185Z,25.40
2018-05-31T20:44:26.468Z,25.30
2018-05-31T20:47:12.884Z,25.30
2018-05-31T20:49:50.055Z,25.30
2018-05-31T20:52:25.149Z,25.20
2018-05-31T20:55:02.236Z,25.20
2018-05-31T20:57:38.779Z,25.20
2018-05-31T21:00:16.481Z,25.20
2018-05-31T21:02:55.552Z,25.10
2018-05-31T21:05:36.488Z,25.00
2018-05-31T21:08:13.937Z,25.00
2018-05-31T21:10:51.461Z,25.00
2018-05-31T21:13:28.345Z,25.00
2018-05-31T21:16:04.356Z,24.90
2018-05-31T21:18:43.947Z,24.80
2018-05-31T21:21:26.326Z,24.80
2018-05-31T21:23:58.171Z,24.80
2018-05-31T21:26:28.727Z,24.80
2018-05-31T21:28:59.795Z,24.70
2018-05-31T21:31:32.206Z,24.70
2018-05-31T21:34:03.357Z,24.50
2018-05-31T21:36:34.638Z,24.50
2018-05-31T21:39:05.952Z,24.50
2018-05-31T21:41:37.136Z,24.40
2018-05-31T21:44:07.578Z,24.40
2018-05-31T21:46:38.027Z,24.40
2018-05-31T21:49:08.465Z,24.40
2018-05-31T21:51:39.668Z,24.20
2018-05-31T21:54:10.011Z,24.20
2018-05-31T21:56:40.437Z,24.40
2018-05-31T21:59:10.793Z,24.40
2018-05-31T22:01:42.050Z,24.20
2018-05-31T22:04:13.254Z,24.10
2018-05-31T22:06:43.707Z,24.10
2018-05-31T22:09:14.798Z,24.30
2018-05-31T22:11:45.274Z,24.30
2018-05-31T22:14:15.761Z,24.20
2018-05-31T22:16:46.279Z,24.10
2018-05-31T22:19:17.546Z,24.00
2018-05-31T22:21:48.001Z,24.00
2018-05-31T22:24:18.533Z,23.90
2018-05-31T22:26:49.067Z,23.90
2018-05-31T22:29:19.441Z,23.80
2018-05-31T22:31:49.961Z,23.80
2018-05-31T22:34:20.302Z,23.70
2018-05-31T22:36:50.693Z,23.70
2018-05-31T22:39:21.905Z,23.50
2018-05-31T22:41:52.512Z,23.50
2018-05-31T22:44:22.871Z,23.50
2018-05-31T22:46:53.382Z,23.40
2018-05-31T22:49:23.709Z,23.30
2018-05-31T22:51:54.233Z,23.30
2018-05-31T22:54:24.608Z,23.20
2018-05-31T22:56:55.114Z,23.20
2018-05-31T22:59:26.288Z,23.20
2018-05-31T23:01:56.759Z,23.10
2018-05-31T23:04:27.972Z,23.10
2018-05-31T23:06:58.448Z,23.10
2018-05-31T23:09:29.721Z,23.00
2018-05-31T23:12:00.980Z,22.90
2018-05-31T23:14:32.229Z,22.90
2018-05-31T23:17:02.800Z,22.80
2018-05-31T23:19:33.151Z,22.80
2018-05-31T23:22:03.696Z,22.80
2018-05-31T23:24:34.892Z,22.70
2018-05-31T23:27:05.411Z,22.70
2018-05-31T23:29:35.790Z,22.70
2018-05-31T23:32:07.128Z,22.60
2018-05-31T23:34:38.317Z,22.60
2018-05-31T23:37:08.845Z,22.60
2018-05-31T23:39:39.292Z,22.50
2018-05-31T23:42:09.896Z,22.50
2018-05-31T23:44:40.382Z,22.50
2018-05-31T23:47:11.669Z,22.40
2018-05-31T23:49:42.069Z,22.40
2018-05-31T23:52:12.573Z,22.30
2018-05-31T23:54:43.024Z,22.30
2018-05-31T23:57:13.806Z,22.30
2018-05-31T23:59:44.296Z,22.20
